WLG weather

Wellington International Airport
Wellington, Wellington Region, New Zealand

Public forecast

Using degrees Celsius for public forecast. Weather courtesy of forecast.io.

Current aviation weather report (METAR) for Wellington International Airport

Retrieved 2020/02/23 08:30 UTC (17 minutes ago):

NZWN 230830Z AUTO 14011KT 9999 NCD 15/09 Q1024 NOSIG

Aviation forecast (TAF) for Wellington International Airport

Retrieved 2020/02/23 06:03 UTC (3 hours ago):

TAF NZWN 230501Z 2306/2406 17015KT 9999 FEW030 SCT040 BECMG 2312/2314 16005KT